Aviation Digital Data Service (ADDS)

Output produced by METARs form (0545 UTC 19 March 2019)
found at http://www.aviationweather.gov/metar/data/
 
METAR text: FWCL 180800Z 01004KT 9999 FEW025CB SCT030 BKN080 26/19 Q1015 NOSIG
Conditions at: FWCL (CHILEKA INTL ARP, MW) observed 0800 UTC 18 March 2019
Temperature: 26.0°C (79°F)
Dewpoint: 19.0°C (66°F) [RH = 65%]
Pressure (altimeter): 29.97 inches Hg (1015.0 mb)
Winds: from the N (10 degrees) at 5 MPH (4 knots; 2.1 m/s)
Visibility: 6 or more miles (10+ km)
Ceiling: 8000 feet AGL
Clouds: few clouds at 2500 feet AGL
scattered clouds at 3000 feet AGL
broken clouds at 8000 feet AGL
Weather: no significant weather observed at this time